Time;durP1;ratioP1;P1;durP2;ratioP2;P2;SDS_P1;SDS_P2;PMS_P1;PMS_P2;Temp;Humidity;BMP_temperature;BMP_pressure;BME280_temperature;BME280_humidity;BME280_pressure;Samples;Min_cycle;Max_cycle;Signal;HPM_P1;HPM_P2
2023/04/24 00:00:40;;;;;;;17.67;12.10;;;;;;;13.45;100.00;101154.53;2077951;28;20448;-74
2023/04/24 00:02:03;;;;;;;16.63;11.10;;;;;;;13.44;100.00;101147.44;2063934;28;20049;-74
2023/04/24 00:03:27;;;;;;;20.40;10.50;;;;;;;13.46;100.00;101151.88;2067370;28;20053;-73
2023/04/24 00:04:51;;;;;;;18.30;10.82;;;;;;;13.47;100.00;101148.34;2069967;28;20619;-74
2023/04/24 00:06:14;;;;;;;16.27;10.88;;;;;;;13.50;100.00;101147.50;2061472;28;20113;-74
2023/04/24 00:07:36;;;;;;;15.60;9.73;;;;;;;13.52;100.00;101145.75;2059220;28;20050;-74
2023/04/24 00:08:59;;;;;;;12.88;9.35;;;;;;;13.54;100.00;101154.59;2081899;28;20049;-73
2023/04/24 00:10:20;;;;;;;15.05;9.05;;;;;;;13.51;100.00;101143.97;2077727;28;20037;-74
2023/04/24 00:11:42;;;;;;;14.85;9.98;;;;;;;13.45;100.00;101142.16;2075333;28;20472;-73
2023/04/24 00:13:04;;;;;;;17.52;10.30;;;;;;;13.41;100.00;101142.09;2077719;28;20509;-74
2023/04/24 00:14:26;;;;;;;15.60;9.95;;;;;;;13.40;100.00;101140.31;2069410;28;20049;-74
2023/04/24 00:15:49;;;;;;;17.60;10.20;;;;;;;13.35;100.00;101137.63;2075498;28;20430;-74
2023/04/24 00:17:11;;;;;;;14.13;9.98;;;;;;;13.20;100.00;101136.56;2078007;28;20049;-74
2023/04/24 00:18:33;;;;;;;14.45;9.85;;;;;;;13.14;100.00;101140.03;2077729;28;20449;-74
2023/04/24 00:19:59;;;;;;;15.23;10.05;;;;;;;13.13;100.00;101127.66;2084169;28;20052;-74
2023/04/24 00:21:21;;;;;;;16.35;10.70;;;;;;;13.14;100.00;101135.63;2078159;28;20075;-74
2023/04/24 00:22:43;;;;;;;19.45;10.02;;;;;;;13.17;100.00;101132.13;2074001;28;20046;-74
2023/04/24 00:24:06;;;;;;;20.77;11.02;;;;;;;13.15;100.00;101136.53;2075316;28;20049;-74
2023/04/24 00:25:28;;;;;;;16.88;11.23;;;;;;;13.15;100.00;101131.22;2069797;28;20079;-74
2023/04/24 00:26:49;;;;;;;19.25;11.38;;;;;;;13.16;100.00;101131.25;2077406;28;20057;-74
2023/04/24 00:28:12;;;;;;;17.45;11.63;;;;;;;13.18;100.00;101144.53;2069142;28;20045;-74
2023/04/24 00:29:34;;;;;;;16.17;11.75;;;;;;;13.18;100.00;101130.38;2066887;28;20096;-73
2023/04/24 00:30:57;;;;;;;24.95;12.27;;;;;;;13.18;100.00;101135.69;2066792;28;20064;-73
2023/04/24 00:32:18;;;;;;;18.70;11.82;;;;;;;13.14;100.00;101134.75;2072783;28;20553;-73
2023/04/24 00:33:41;;;;;;;17.50;11.20;;;;;;;13.12;100.00;101133.81;2077506;28;20092;-74
2023/04/24 00:35:06;;;;;;;15.82;10.40;;;;;;;13.12;100.00;101133.81;2064946;28;20107;-73
2023/04/24 00:36:30;;;;;;;18.10;10.35;;;;;;;13.09;100.00;101131.13;2081517;28;20080;-74
2023/04/24 00:37:51;;;;;;;19.35;10.80;;;;;;;13.09;100.00;101132.00;2075230;28;20550;-74
2023/04/24 00:39:14;;;;;;;18.48;10.93;;;;;;;13.09;100.00;101136.41;2069116;28;20046;-73
2023/04/24 00:40:35;;;;;;;16.67;10.93;;;;;;;13.08;100.00;101132.00;2077526;28;20042;-74
2023/04/24 00:41:58;;;;;;;15.05;10.57;;;;;;;13.06;100.00;101133.75;2076369;28;20537;-73
2023/04/24 00:43:21;;;;;;;16.48;10.73;;;;;;;13.05;100.00;101134.63;2076640;28;20156;-74
2023/04/24 00:44:43;;;;;;;19.75;10.55;;;;;;;13.04;100.00;101135.50;2067595;28;20045;-74
2023/04/24 00:46:06;;;;;;;22.55;11.52;;;;;;;12.99;100.00;101146.03;2068610;28;20050;-74
2023/04/24 00:47:28;;;;;;;17.85;10.80;;;;;;;12.90;100.00;101131.78;2070871;28;20136;-73
2023/04/24 00:48:51;;;;;;;17.10;11.48;;;;;;;12.86;100.00;101145.88;2075137;28;20050;-75
2023/04/24 00:50:16;;;;;;;21.23;12.52;;;;;;;12.86;100.00;101146.75;2070254;28;20137;-73
2023/04/24 00:51:37;;;;;;;20.65;12.25;;;;;;;12.85;100.00;101142.34;2068341;28;20521;-73
2023/04/24 00:53:00;;;;;;;18.70;12.18;;;;;;;12.85;100.00;101137.03;2073875;28;20587;-74
2023/04/24 00:54:21;;;;;;;20.33;11.90;;;;;;;12.84;100.00;101144.97;2069360;28;20057;-74
2023/04/24 00:55:44;;;;;;;19.85;10.57;;;;;;;12.81;100.00;101142.25;2060999;28;20209;-74
2023/04/24 00:57:07;;;;;;;17.17;10.90;;;;;;;12.73;100.00;101139.53;2069656;28;20398;-73
2023/04/24 00:58:30;;;;;;;18.20;11.88;;;;;;;12.73;100.00;101145.69;2078545;28;20440;-74
2023/04/24 00:59:53;;;;;;;18.88;12.23;;;;;;;12.75;100.00;101136.00;2069018;28;20136;-74
2023/04/24 01:01:14;;;;;;;18.40;12.07;;;;;;;12.78;100.00;101143.13;2069477;28;20057;-74
2023/04/24 01:02:39;;;;;;;19.17;11.55;;;;;;;12.76;100.00;101140.44;2073718;28;20084;-74
2023/04/24 01:04:02;;;;;;;23.70;12.68;;;;;;;12.74;100.00;101144.81;2070908;28;20046;-73
2023/04/24 01:05:26;;;;;;;23.48;12.43;;;;;;;12.74;100.00;101141.28;2076897;28;20103;-74
2023/04/24 01:06:51;;;;;;;16.10;11.48;;;;;;;12.67;100.00;101144.72;2067142;28;20049;-74
2023/04/24 01:08:14;;;;;;;19.00;11.75;;;;;;;12.58;100.00;101140.22;2080960;28;20034;-74
2023/04/24 01:09:36;;;;;;;17.83;11.43;;;;;;;12.55;100.00;101142.81;2079724;28;20053;-74
2023/04/24 01:10:59;;;;;;;;;;;;;;;12.54;100.00;101146.31;2068683;28;20084;-74
2023/04/24 01:12:20;;;;;;;16.38;10.95;;;;;;;12.55;100.00;101144.56;2074299;28;20432;-73
2023/04/24 01:13:42;;;;;;;20.23;12.48;;;;;;;12.56;100.00;101141.06;2075831;28;20076;-74
2023/04/24 01:15:07;;;;;;;20.17;12.15;;;;;;;12.56;100.00;101141.94;2071085;28;20058;-74
2023/04/24 01:16:30;;;;;;;19.83;12.18;;;;;;;12.56;100.00;101141.94;2068558;28;20106;-73
2023/04/24 01:17:52;;;;;;;19.17;11.85;;;;;;;12.54;100.00;101140.13;2074879;28;20064;-74
2023/04/24 01:19:18;;;;;;;19.70;11.63;;;;;;;12.49;100.00;101141.84;2069235;28;20109;-74
2023/04/24 01:20:45;;;;;;;19.02;12.38;;;;;;;12.48;100.00;101143.59;2076699;28;20127;-74
2023/04/24 01:22:11;;;;;;;15.95;11.52;;;;;;;12.49;100.00;101148.03;2069628;28;20084;-73
2023/04/24 01:23:34;;;;;;;18.15;11.48;;;;;;;12.47;100.00;101147.09;2069320;28;20099;-74
2023/04/24 01:24:57;;;;;;;20.67;11.68;;;;;;;12.43;100.00;101142.63;2070483;28;20069;-74
2023/04/24 01:26:20;;;;;;;19.55;11.68;;;;;;;12.37;100.00;101148.75;2061232;28;20073;-74
2023/04/24 01:27:42;;;;;;;20.35;11.98;;;;;;;12.34;100.00;101145.16;2073120;28;20052;-74
2023/04/24 01:29:03;;;;;;;18.92;12.63;;;;;;;12.37;100.00;101138.16;2069391;28;20220;-73
2023/04/24 01:30:26;;;;;;;20.48;11.95;;;;;;;12.41;100.00;101135.53;2074441;28;20124;-74
2023/04/24 01:31:48;;;;;;;21.65;13.20;;;;;;;12.43;100.00;101142.63;2077415;28;20071;-74
2023/04/24 01:33:11;;;;;;;19.02;13.00;;;;;;;12.46;100.00;101139.16;2072867;28;20200;-74
2023/04/24 01:34:34;;;;;;;18.95;13.20;;;;;;;12.47;100.00;101143.59;2072705;28;20076;-74
2023/04/24 01:35:56;;;;;;;19.92;13.57;;;;;;;12.48;100.00;101146.25;2069083;28;20434;-74
2023/04/24 01:37:20;;;;;;;;;;;;;;;12.43;100.00;101145.28;2067476;28;20104;-74
2023/04/24 01:38:42;;;;;;;20.25;13.20;;;;;;;12.40;100.00;101139.97;2065933;28;19926;-74
2023/04/24 01:40:04;;;;;;;23.23;13.07;;;;;;;12.38;100.00;101144.34;2073772;28;20217;-73
2023/04/24 01:41:27;;;;;;;18.80;12.55;;;;;;;12.38;100.00;101147.88;2076368;28;20072;-73
2023/04/24 01:42:50;;;;;;;20.17;13.05;;;;;;;12.37;100.00;101143.44;2069662;28;20068;-74
2023/04/24 01:44:11;;;;;;;17.63;11.48;;;;;;;12.35;100.00;101146.94;2066657;28;20260;-74
2023/04/24 01:45:34;;;;;;;24.65;12.23;;;;;;;12.27;100.00;101138.88;2076474;28;20053;-74
2023/04/24 01:46:55;;;;;;;17.52;12.38;;;;;;;12.25;100.00;101143.28;2067442;28;20077;-74
2023/04/24 01:48:20;;;;;;;23.15;13.32;;;;;;;12.27;100.00;101143.31;2072319;28;20812;-73
2023/04/24 01:49:42;;;;;;;18.40;12.75;;;;;;;12.28;100.00;101145.94;2054765;28;20043;-74
2023/04/24 01:51:08;;;;;;;21.05;12.70;;;;;;;12.30;100.00;101138.94;2061038;28;20050;-74
2023/04/24 01:52:35;;;;;;;20.52;12.82;;;;;;;12.32;100.00;101141.59;2061013;28;20100;-73
2023/04/24 01:53:57;;;;;;;18.42;11.95;;;;;;;12.29;100.00;101141.56;2069348;28;20049;-73
2023/04/24 01:55:20;;;;;;;19.40;12.43;;;;;;;12.26;100.00;101138.88;2062496;28;20078;-74
2023/04/24 01:56:42;;;;;;;19.27;12.68;;;;;;;12.24;100.00;101141.50;2074204;28;20126;-73
2023/04/24 01:58:04;;;;;;;19.85;12.90;;;;;;;12.24;100.00;101140.59;2072605;28;20335;-74
2023/04/24 01:59:28;;;;;;;18.88;12.98;;;;;;;12.23;100.00;101139.72;2067785;28;20137;-73
2023/04/24 02:00:51;;;;;;;17.77;12.50;;;;;;;12.24;100.00;101144.13;2076701;28;20045;-74
2023/04/24 02:02:12;;;;;;;15.20;11.57;;;;;;;12.21;100.00;101140.53;2076558;28;20046;-74
2023/04/24 02:03:35;;;;;;;17.63;12.85;;;;;;;12.19;100.00;101143.19;2084215;28;20045;-74
2023/04/24 02:04:56;;;;;;;18.45;11.90;;;;;;;12.19;100.00;101144.94;2080942;28;20108;-74
2023/04/24 02:06:18;;;;;;;18.13;11.45;;;;;;;12.18;100.00;101144.06;2084359;28;20075;-74
2023/04/24 02:07:42;;;;;;;15.30;11.48;;;;;;;12.16;100.00;101143.13;2078672;28;20049;-73
2023/04/24 02:09:04;;;;;;;16.83;11.35;;;;;;;12.14;100.00;101139.56;2078771;28;20457;-73
2023/04/24 02:10:26;;;;;;;18.55;11.48;;;;;;;12.14;100.00;101142.19;2079620;28;20049;-74
2023/04/24 02:11:49;;;;;;;18.98;11.25;;;;;;;12.14;100.00;101141.34;2078774;28;20033;-74
2023/04/24 02:13:10;;;;;;;19.00;11.52;;;;;;;12.13;100.00;101140.44;2077566;28;20056;-74
2023/04/24 02:14:33;;;;;;;18.27;11.77;;;;;;;12.12;100.00;101141.31;2070378;28;20144;-74
2023/04/24 02:15:56;;;;;;;16.92;10.68;;;;;;;12.06;100.00;101138.56;2078893;28;20115;-74
2023/04/24 02:17:19;;;;;;;16.35;10.07;;;;;;;11.96;100.00;101142.81;2069876;28;20065;-73
2023/04/24 02:18:40;;;;;;;18.58;11.73;;;;;;;11.92;100.00;101142.75;2070630;28;20053;-74
2023/04/24 02:20:04;;;;;;;18.88;12.75;;;;;;;11.93;100.00;101142.78;2070318;28;20113;-74
2023/04/24 02:21:27;;;;;;;23.58;11.38;;;;;;;11.96;100.00;101147.22;2070801;28;20053;-73
2023/04/24 02:22:51;;;;;;;18.90;11.57;;;;;;;11.98;100.00;101146.38;2073124;28;20096;-74
2023/04/24 02:24:20;;;;;;;16.60;11.00;;;;;;;11.98;100.00;101146.38;2079426;28;20045;-74
2023/04/24 02:25:41;;;;;;;15.85;11.20;;;;;;;11.98;100.00;101151.69;2073021;28;20072;-73
2023/04/24 02:27:04;;;;;;;13.98;10.43;;;;;;;11.98;100.00;101150.78;2070459;28;20534;-73
2023/04/24 02:28:26;;;;;;;17.85;11.45;;;;;;;11.96;100.00;101156.03;2070585;28;20118;-74
2023/04/24 02:29:48;;;;;;;14.43;11.13;;;;;;;11.96;100.00;101157.78;2070268;28;20082;-73
2023/04/24 02:31:09;;;;;;;18.27;11.88;;;;;;;11.94;100.00;101159.56;2070621;28;20046;-73
2023/04/24 02:32:32;;;;;;;17.05;11.35;;;;;;;11.89;100.00;101161.22;2072954;28;20053;-73
2023/04/24 02:33:53;;;;;;;17.25;10.90;;;;;;;11.85;100.00;101165.56;2078466;28;20076;-74
2023/04/24 02:35:16;;;;;;;18.75;11.07;;;;;;;11.82;100.00;101165.50;2070906;28;20527;-74
2023/04/24 02:36:38;;;;;;;16.92;11.73;;;;;;;11.82;100.00;101170.78;2078345;28;20068;-74
2023/04/24 02:38:02;;;;;;;21.67;12.52;;;;;;;11.83;100.00;101169.94;2076125;28;20103;-73
2023/04/24 02:39:24;;;;;;;18.55;12.68;;;;;;;11.84;100.00;101171.72;2067951;28;20044;-74
2023/04/24 02:40:48;;;;;;;17.75;12.80;;;;;;;11.85;100.00;101168.22;2065655;28;20062;-74
2023/04/24 02:42:10;;;;;;;15.27;11.38;;;;;;;11.87;100.00;101178.84;2074301;28;20033;-73
2023/04/24 02:43:32;;;;;;;19.13;11.07;;;;;;;11.86;100.00;101175.28;2071913;28;20054;-74
2023/04/24 02:44:53;;;;;;;18.38;11.10;;;;;;;11.86;100.00;101171.75;2075561;28;20100;-74
2023/04/24 02:46:16;;;;;;;18.65;11.40;;;;;;;11.86;100.00;101172.66;2070323;28;20058;-73
2023/04/24 02:47:38;;;;;;;16.05;10.70;;;;;;;11.87;100.00;101174.44;2074958;28;20393;-74
2023/04/24 02:49:00;;;;;;;17.63;11.90;;;;;;;11.86;100.00;101175.28;2066683;28;20084;-74
2023/04/24 02:50:22;;;;;;;14.55;10.70;;;;;;;11.87;100.00;101170.91;2074749;28;20046;-74
2023/04/24 02:51:45;;;;;;;16.35;10.20;;;;;;;11.86;100.00;101169.09;2069013;28;20049;-74
2023/04/24 02:53:07;;;;;;;16.08;10.27;;;;;;;11.84;100.00;101166.44;2073245;28;20136;-73
2023/04/24 02:54:30;;;;;;;18.02;10.82;;;;;;;11.81;100.00;101171.69;2068878;28;20065;-74
2023/04/24 02:55:52;;;;;;;15.55;9.90;;;;;;;11.77;100.00;101164.53;2058949;28;20050;-74
2023/04/24 02:57:14;;;;;;;21.05;11.30;;;;;;;11.77;100.00;101174.22;2067148;28;20046;-74
2023/04/24 02:58:38;;;;;;;17.50;11.45;;;;;;;11.76;100.00;101168.03;2067034;28;20037;-72
2023/04/24 03:00:00;;;;;;;19.05;10.75;;;;;;;11.76;100.00;101169.78;2072669;28;20050;-73
2023/04/24 03:01:21;;;;;;;14.48;10.20;;;;;;;11.76;100.00;101165.41;2071529;28;20049;-72
2023/04/24 03:02:44;;;;;;;17.30;10.70;;;;;;;11.78;100.00;101176.00;2073036;28;20486;-73
2023/04/24 03:04:07;;;;;;;17.80;10.23;;;;;;;11.77;100.00;101166.28;2068531;28;20626;-72
2023/04/24 03:05:28;;;;;;;18.98;10.30;;;;;;;11.75;100.00;101176.84;2062162;28;20042;-73
2023/04/24 03:06:51;;;;;;;14.40;10.77;;;;;;;11.75;100.00;101175.97;2075747;28;20041;-73
2023/04/24 03:08:17;;;;;;;18.20;9.70;;;;;;;11.71;100.00;101172.34;2070142;28;20521;-72
2023/04/24 03:09:38;;;;;;;17.33;11.00;;;;;;;11.67;100.00;101177.56;2067203;28;20368;-72
2023/04/24 03:11:01;;;;;;;14.65;10.52;;;;;;;11.66;100.00;101173.13;2077256;28;20049;-72
2023/04/24 03:12:23;;;;;;;16.90;10.23;;;;;;;11.61;100.00;101173.06;2078251;28;20107;-73
2023/04/24 03:13:46;;;;;;;14.05;9.27;;;;;;;11.57;100.00;101180.03;2071302;28;20765;-73
2023/04/24 03:15:10;;;;;;;15.45;9.60;;;;;;;11.53;100.00;101178.19;2070562;28;20137;-72
2023/04/24 03:16:33;;;;;;;18.67;11.02;;;;;;;11.53;100.00;101183.50;2078448;28;20053;-73
2023/04/24 03:17:55;;;;;;;16.92;10.02;;;;;;;11.52;100.00;101183.44;2075411;28;20041;-73
2023/04/24 03:19:17;;;;;;;15.48;10.23;;;;;;;11.51;100.00;101179.91;2062155;28;20054;-73
2023/04/24 03:20:51;;;;;;;19.50;10.95;;;;;;;11.49;100.00;101176.34;2078449;28;20701;-74
2023/04/24 03:22:12;;;;;;;17.88;9.73;;;;;;;11.49;100.00;101178.09;2068591;28;20046;-74
2023/04/24 03:23:37;;;;;;;17.75;10.23;;;;;;;11.49;100.00;101183.38;2071778;28;20498;-74
2023/04/24 03:24:59;;;;;;;17.98;10.02;;;;;;;11.49;100.00;101191.31;2071769;28;20073;-73
2023/04/24 03:26:21;;;;;;;16.75;10.20;;;;;;;11.51;100.00;101187.84;2075096;28;20452;-74
2023/04/24 03:28:07;;;;;;;16.63;10.23;;;;;;;11.49;100.00;101196.59;2078581;28;20049;-74
2023/04/24 03:29:47;;;;;;;18.27;10.73;;;;;;;11.48;100.00;101192.19;2079081;28;20478;-73
2023/04/24 03:31:11;;;;;;;15.95;10.68;;;;;;;11.49;100.00;101191.31;2070057;28;20052;-74
2023/04/24 03:32:34;;;;;;;14.52;10.55;;;;;;;11.49;100.00;101188.66;2067270;28;20061;-74
2023/04/24 03:33:57;;;;;;;15.77;11.10;;;;;;;11.48;100.00;101184.28;2066625;28;20084;-74
2023/04/24 03:35:21;;;;;;;17.42;11.40;;;;;;;11.46;100.00;101192.16;2063463;28;20077;-73
2023/04/24 03:36:47;;;;;;;16.80;11.75;;;;;;;11.45;100.00;101189.50;2075606;28;20057;-73
2023/04/24 03:38:08;;;;;;;16.23;11.05;;;;;;;11.41;100.00;101188.56;2072454;28;20042;-74
2023/04/24 03:39:52;;;;;;;16.45;10.60;;;;;;;11.39;100.00;101195.56;2079256;28;20061;-73
2023/04/24 03:41:20;;;;;;;18.33;11.80;;;;;;;11.41;100.00;101196.47;2069435;28;20586;-73
2023/04/24 03:42:45;;;;;;;17.23;11.52;;;;;;;11.43;100.00;101202.66;2068708;28;20134;-73
2023/04/24 03:44:07;;;;;;;14.80;10.73;;;;;;;11.45;100.00;101200.94;2066715;28;20042;-74
2023/04/24 03:45:30;;;;;;;14.75;10.02;;;;;;;11.47;100.00;101193.06;2066624;28;20049;-74
2023/04/24 03:46:53;;;;;;;19.20;9.68;;;;;;;11.48;100.00;101194.84;2064610;28;20439;-73
2023/04/24 03:48:17;;;;;;;14.60;9.10;;;;;;;11.49;100.00;101204.53;2068945;28;20045;-74
2023/04/24 03:49:38;;;;;;;17.88;12.15;;;;;;;11.52;100.00;101201.97;2070004;28;20049;-73
2023/04/24 03:51:01;;;;;;;16.80;13.85;;;;;;;11.55;100.00;101207.31;2074377;28;20095;-74
2023/04/24 03:52:23;;;;;;;18.30;13.70;;;;;;;11.59;100.00;101214.44;2070143;28;20042;-74
2023/04/24 03:53:46;;;;;;;;;;;;;;;11.61;100.00;101217.13;2069382;28;20046;-73
2023/04/24 03:55:13;;;;;;;12.98;10.13;;;;;;;11.64;100.00;101210.13;2066923;28;20052;-73
2023/04/24 03:56:39;;;;;;;15.48;10.30;;;;;;;11.66;100.00;101226.00;2067339;28;20107;-74
2023/04/24 03:58:02;;;;;;;13.90;9.63;;;;;;;11.68;100.00;101226.94;2076742;28;20037;-74
2023/04/24 03:59:25;;;;;;;14.20;7.72;;;;;;;11.73;100.00;101222.63;2085176;28;20068;-74
2023/04/24 04:01:02;;;;;;;11.50;7.43;;;;;;;11.79;100.00;101214.84;2077403;28;20080;-73
2023/04/24 04:02:43;;;;;;;11.90;7.43;;;;;;;11.88;100.00;101217.66;2080543;28;20057;-74
2023/04/24 04:04:05;;;;;;;12.27;7.50;;;;;;;11.97;100.00;101223.09;2063830;28;20419;-74
2023/04/24 04:05:27;;;;;;;11.30;6.55;;;;;;;12.07;100.00;101222.38;2063238;28;20136;-73
2023/04/24 04:06:49;;;;;;;9.88;6.63;;;;;;;12.16;100.00;101229.56;2067205;28;20077;-73
2023/04/24 04:08:11;;;;;;;10.65;6.50;;;;;;;12.24;100.00;101230.59;2068545;28;20497;-73
2023/04/24 04:09:34;;;;;;;10.70;6.60;;;;;;;12.33;100.00;101228.09;2066548;28;20137;-73
2023/04/24 04:10:57;;;;;;;13.40;6.28;;;;;;;12.40;100.00;101230.00;2074979;28;20046;-73
2023/04/24 04:12:19;;;;;;;12.65;6.22;;;;;;;12.47;100.00;101233.63;2070183;28;20107;-73
2023/04/24 04:13:41;;;;;;;10.82;5.68;;;;;;;12.53;100.00;101236.34;2065292;28;20765;-73
2023/04/24 04:15:05;;;;;;;11.98;6.45;;;;;;;12.58;100.00;101240.84;2061550;28;20060;-73
2023/04/24 04:16:27;;;;;;;9.95;5.80;;;;;;;12.64;100.00;101234.75;2069820;28;20549;-74
2023/04/24 04:17:56;;;;;;;11.85;6.00;;;;;;;12.70;100.00;101238.38;2076673;28;20551;-73
2023/04/24 04:19:18;;;;;;;12.88;6.07;;;;;;;12.77;100.00;101234.06;2061506;28;20530;-73
2023/04/24 04:20:41;;;;;;;10.13;5.20;;;;;;;12.85;100.00;101242.13;2066880;28;20792;-74
2023/04/24 04:22:02;;;;;;;8.20;5.47;;;;;;;12.94;100.00;101239.59;2066723;28;20046;-73
2023/04/24 04:23:35;;;;;;;10.55;5.88;;;;;;;13.00;100.00;101240.56;2078015;28;20159;-74
2023/04/24 04:25:04;;;;;;;7.85;5.38;;;;;;;13.09;100.00;101240.69;2070149;28;20046;-74
2023/04/24 04:26:28;;;;;;;10.10;5.28;;;;;;;13.19;100.00;101241.75;2059290;28;20042;-74
2023/04/24 04:28:05;;;;;;;9.45;5.65;;;;;;;13.30;100.00;101233.91;2082478;28;20086;-73
2023/04/24 04:29:28;;;;;;;9.82;5.43;;;;;;;13.42;100.00;101234.03;2070767;28;20042;-73
2023/04/24 04:30:53;;;;;;;10.73;5.68;;;;;;;13.55;100.00;101241.28;2073573;28;20048;-74
2023/04/24 04:32:16;;;;;;;10.93;5.38;;;;;;;13.66;100.00;101244.03;2069623;28;20714;-73
2023/04/24 04:33:39;;;;;;;11.68;5.20;;;;;;;13.78;100.00;101244.19;2068697;28;20485;-73
2023/04/24 04:35:03;;;;;;;8.15;5.18;;;;;;;13.85;100.00;101241.59;2058592;28;20053;-74
2023/04/24 04:36:29;;;;;;;9.02;5.13;;;;;;;13.91;100.00;101249.59;2065868;28;20079;-74
2023/04/24 04:37:58;;;;;;;10.43;5.30;;;;;;;13.96;100.00;101245.25;2063819;28;20054;-73
2023/04/24 04:39:47;;;;;;;6.50;4.28;;;;;;;14.06;100.00;101243.56;2079805;28;20050;-73
2023/04/24 04:41:16;;;;;;;9.18;5.20;;;;;;;14.20;100.00;101255.19;2063192;28;20168;-74
2023/04/24 04:42:40;;;;;;;11.68;5.10;;;;;;;14.30;100.00;101249.09;2059371;28;20438;-73
2023/04/24 04:44:04;;;;;;;8.40;4.68;;;;;;;14.42;100.00;101247.44;2065909;28;20046;-74
2023/04/24 04:45:28;;;;;;;8.88;5.40;;;;;;;14.54;100.00;101244.88;2059621;28;20038;-74
2023/04/24 04:47:10;;;;;;;9.55;6.63;;;;;;;14.64;100.00;101246.69;2078742;28;20053;-74
2023/04/24 04:48:32;;;;;;;10.80;5.93;;;;;;;14.69;100.00;101250.31;2073979;28;20060;-73
2023/04/24 04:49:56;;;;;;;7.75;5.55;;;;;;;14.77;100.00;101244.13;2061632;28;20046;-74
2023/04/24 04:51:21;;;;;;;12.52;6.30;;;;;;;14.84;100.00;101245.06;2067836;28;20046;-73
2023/04/24 04:52:43;;;;;;;9.45;6.05;;;;;;;14.94;100.00;101246.91;2069301;28;20045;-74
2023/04/24 04:54:15;;;;;;;11.60;5.43;;;;;;;15.03;100.00;101248.75;2071138;28;20061;-73
2023/04/24 04:55:38;;;;;;;14.55;5.35;;;;;;;15.19;100.00;101247.03;2067879;28;20042;-74
2023/04/24 04:57:07;;;;;;;7.80;4.75;;;;;;;15.34;100.00;101257.72;2076444;28;20057;-74
2023/04/24 04:58:32;;;;;;;8.15;4.70;;;;;;;15.52;100.00;101255.13;2067098;28;20060;-73
2023/04/24 04:59:56;;;;;;;9.52;5.07;;;;;;;15.64;100.00;101252.53;2065736;28;20045;-74
2023/04/24 05:01:32;;;;;;;11.88;4.65;;;;;;;15.78;100.00;101248.16;2067088;28;20052;-74
2023/04/24 05:02:54;;;;;;;12.15;4.45;;;;;;;15.95;100.00;101253.47;2066298;28;20049;-73
2023/04/24 05:04:16;;;;;;;7.25;3.83;;;;;;;16.11;100.00;101262.38;2067870;28;20038;-74
2023/04/24 05:05:40;;;;;;;10.30;4.35;;;;;;;16.27;100.00;101258.88;2061985;28;20419;-73
2023/04/24 05:07:06;;;;;;;8.20;5.00;;;;;;;16.35;100.00;101247.28;2065841;28;20445;-74
2023/04/24 05:08:30;;;;;;;9.57;4.22;;;;;;;16.43;100.00;101255.28;2072552;28;20077;-74
2023/04/24 05:09:53;;;;;;;9.90;4.13;;;;;;;16.56;100.00;101253.50;2077468;28;20061;-74
2023/04/24 05:11:16;;;;;;;9.35;4.90;;;;;;;16.71;100.00;101258.88;2067833;28;20050;-74
2023/04/24 05:12:39;;;;;;;12.52;4.88;;;;;;;16.88;100.00;101256.16;2074617;28;20760;-73
2023/04/24 05:14:03;;;;;;;11.18;4.43;;;;;;;17.07;100.00;101260.53;2067071;28;20162;-74
2023/04/24 05:15:34;;;;;;;10.60;4.30;;;;;;;17.26;100.00;101259.63;2073522;28;20069;-74
2023/04/24 05:16:57;;;;;;;11.48;4.53;;;;;;;17.45;100.00;101260.44;2067199;28;20513;-74
2023/04/24 05:18:21;;;;;;;10.30;4.40;;;;;;;17.65;100.00;101263.03;2065864;28;20061;-74
2023/04/24 05:19:44;;;;;;;9.25;4.38;;;;;;;17.83;100.00;101262.91;2070567;28;20038;-73
2023/04/24 05:21:07;;;;;;;9.23;4.20;;;;;;;18.02;100.00;101261.00;2066358;28;20045;-74
2023/04/24 05:22:30;;;;;;;11.07;4.60;;;;;;;18.20;100.00;101255.53;2072515;28;20092;-73
2023/04/24 05:23:52;;;;;;;10.23;4.18;;;;;;;18.38;100.00;101255.38;2065299;28;20498;-73
2023/04/24 05:25:28;;;;;;;12.13;4.10;;;;;;;18.64;100.00;101255.19;2070735;28;20371;-74
2023/04/24 05:26:55;;;;;;;10.25;3.92;;;;;;;18.88;100.00;101256.72;2071269;28;20033;-74
2023/04/24 05:28:22;;;;;;;9.35;3.40;;;;;;;19.07;100.00;101267.22;2067266;28;20050;-74
2023/04/24 05:29:58;;;;;;;11.07;3.67;;;;;;;19.18;100.00;101255.47;2069504;28;20041;-73
2023/04/24 05:31:20;;;;;;;8.88;3.75;;;;;;;19.17;100.00;101251.91;2065710;28;20130;-74
2023/04/24 05:32:42;;;;;;;10.02;3.30;;;;;;;19.25;100.00;101260.75;2064373;28;20049;-74
2023/04/24 05:34:05;;;;;;;10.88;3.40;;;;;;;19.43;100.00;101256.94;2072512;28;20061;-74
2023/04/24 05:35:29;;;;;;;11.15;3.40;;;;;;;19.62;100.00;101258.53;2075499;28;20046;-74
2023/04/24 05:36:52;;;;;;;8.35;3.47;;;;;;;19.74;100.00;101255.69;2069126;28;20137;-74
2023/04/24 05:38:17;;;;;;;14.43;3.53;;;;;;;19.87;100.00;101257.28;2066725;28;20445;-74
2023/04/24 05:39:40;;;;;;;12.27;3.50;;;;;;;19.86;100.00;101251.94;2066835;28;20085;-74
2023/04/24 05:41:03;;;;;;;9.85;3.25;;;;;;;19.92;100.00;101259.88;2073400;28;20065;-74
2023/04/24 05:42:26;;;;;;;11.35;2.97;;;;;;;20.12;100.00;101262.25;2076218;28;20119;-73
2023/04/24 05:43:47;;;;;;;11.23;2.92;;;;;;;20.28;100.00;101258.44;2072881;28;20053;-74
2023/04/24 05:45:16;;;;;;;13.55;3.45;;;;;;;20.44;100.00;101265.34;2070285;28;20869;-74
2023/04/24 05:46:38;;;;;;;8.23;2.83;;;;;;;20.54;100.00;101266.97;2075104;28;20053;-74
2023/04/24 05:48:01;;;;;;;14.27;3.40;;;;;;;20.62;100.00;101265.03;2067206;28;20108;-74
2023/04/24 05:49:23;;;;;;;8.48;3.45;;;;;;;20.48;100.00;101260.84;2067501;28;20054;-74
2023/04/24 05:50:47;;;;;;;8.65;3.22;;;;;;;20.47;100.00;101257.25;2062499;28;20150;-74
2023/04/24 05:52:10;;;;;;;12.45;3.20;;;;;;;20.53;100.00;101256.25;2074354;28;20092;-75
2023/04/24 05:53:35;;;;;;;15.18;3.40;;;;;;;20.38;100.00;101259.19;2069248;28;20050;-74
2023/04/24 05:54:57;;;;;;;10.65;3.28;;;;;;;20.24;100.00;101264.75;2066527;28;20054;-74
2023/04/24 05:56:24;;;;;;;11.40;2.88;;;;;;;19.96;100.00;101264.28;2077538;28;20084;-74
2023/04/24 05:57:47;;;;;;;10.38;2.88;;;;;;;19.82;100.00;101259.13;2071787;28;20136;-74
2023/04/24 05:59:11;;;;;;;8.75;3.50;;;;;;;19.89;100.00;101258.13;2074199;28;20045;-73
2023/04/24 06:00:36;;;;;;;12.90;3.85;;;;;;;20.16;100.00;101267.53;2075129;28;20088;-74
2023/04/24 06:02:03;;;;;;;13.32;3.40;;;;;;;20.17;100.00;101260.38;2077891;28;20049;-74
2023/04/24 06:03:25;;;;;;;9.75;3.90;;;;;;;19.96;100.00;101264.28;2076949;28;20052;-74
2023/04/24 06:04:48;;;;;;;9.75;3.70;;;;;;;19.72;100.00;101268.22;2074398;28;20057;-74
2023/04/24 06:06:10;;;;;;;12.48;3.78;;;;;;;19.61;100.00;101271.94;2075413;28;20041;-74
2023/04/24 06:07:33;;;;;;;17.10;3.50;;;;;;;19.51;100.00;101273.84;2073635;28;20045;-74
2023/04/24 06:08:58;;;;;;;8.07;3.40;;;;;;;19.32;100.00;101277.63;2067001;28;20046;-74
2023/04/24 06:10:22;;;;;;;12.52;3.85;;;;;;;19.45;100.00;101264.06;2076499;28;20050;-73
2023/04/24 06:11:46;;;;;;;14.20;3.40;;;;;;;19.71;100.00;101274.47;2070546;28;20053;-74
2023/04/24 06:13:09;;;;;;;11.30;2.97;;;;;;;19.89;100.00;101266.16;2075602;28;20056;-74
2023/04/24 06:14:35;;;;;;;9.27;3.50;;;;;;;20.16;100.00;101272.03;2064417;28;20399;-74
2023/04/24 06:16:15;;;;;;;9.00;2.90;;;;;;;20.55;100.00;101271.41;2077436;28;20061;-74
2023/04/24 06:17:42;;;;;;;10.98;3.15;;;;;;;20.67;100.00;101276.59;2067812;28;20447;-74
2023/04/24 06:19:05;;;;;;;8.40;3.10;;;;;;;20.82;100.00;101275.41;2066133;28;20490;-74
2023/04/24 06:20:26;;;;;;;6.03;2.83;;;;;;;20.94;100.00;101272.47;2068818;28;20109;-74